sensor_id;sensor_type;location;lat;lon;timestamp;pressure;altitude;pressure_sealevel;temperature;humidity
51530;BME280;37613;51.788;21.582;2023-04-15T00:02:59;99282.55;;;9.14;88.11
51530;BME280;37613;51.788;21.582;2023-04-15T00:07:51;99287.29;;;9.12;88.72
51530;BME280;37613;51.788;21.582;2023-04-15T00:12:17;99282.98;;;9.09;88.90
51530;BME280;37613;51.788;21.582;2023-04-15T00:21:22;99288.82;;;9.08;89.64
51530;BME280;37613;51.788;21.582;2023-04-15T00:25:42;99284.77;;;9.04;89.72
51530;BME280;37613;51.788;21.582;2023-04-15T00:30:11;99280.79;;;8.99;90.09
51530;BME280;37613;51.788;21.582;2023-04-15T00:34:37;99280.98;;;8.93;91.14
51530;BME280;37613;51.788;21.582;2023-04-15T00:39:16;99280.64;;;8.87;91.49
51530;BME280;37613;51.788;21.582;2023-04-15T00:43:34;99278.32;;;8.81;92.83
51530;BME280;37613;51.788;21.582;2023-04-15T00:48:02;99272.23;;;8.75;93.43
51530;BME280;37613;51.788;21.582;2023-04-15T00:56:46;99272.74;;;8.69;93.72
51530;BME280;37613;51.788;21.582;2023-04-15T01:01:48;99274.23;;;8.69;94.05
51530;BME280;37613;51.788;21.582;2023-04-15T01:10:48;99268.52;;;8.65;93.53
51530;BME280;37613;51.788;21.582;2023-04-15T01:15:11;99271.99;;;8.63;94.12
51530;BME280;37613;51.788;21.582;2023-04-15T01:23:57;99272.67;;;8.57;95.59
51530;BME280;37613;51.788;21.582;2023-04-15T01:28:25;99274.96;;;8.55;95.49
51530;BME280;37613;51.788;21.582;2023-04-15T01:32:58;99277.02;;;8.53;96.27
51530;BME280;37613;51.788;21.582;2023-04-15T01:37:10;99280.05;;;8.49;96.85
51530;BME280;37613;51.788;21.582;2023-04-15T01:41:39;99278.83;;;8.42;96.95
51530;BME280;37613;51.788;21.582;2023-04-15T01:51:14;99276.18;;;8.32;98.67
51530;BME280;37613;51.788;21.582;2023-04-15T01:55:42;99279.34;;;8.29;98.64
51530;BME280;37613;51.788;21.582;2023-04-15T02:00:10;99283.68;;;8.28;98.72
51530;BME280;37613;51.788;21.582;2023-04-15T02:15:00;99277.95;;;8.28;99.51
51530;BME280;37613;51.788;21.582;2023-04-15T02:19:20;99277.48;;;8.27;99.63
51530;BME280;37613;51.788;21.582;2023-04-15T02:23:56;99269.52;;;8.27;99.69
51530;BME280;37613;51.788;21.582;2023-04-15T02:28:22;99264.89;;;8.26;100.00
51530;BME280;37613;51.788;21.582;2023-04-15T02:32:37;99269.14;;;8.26;99.97
51530;BME280;37613;51.788;21.582;2023-04-15T02:37:07;99268.83;;;8.26;100.00
51530;BME280;37613;51.788;21.582;2023-04-15T02:41:20;99267.71;;;8.27;100.00
51530;BME280;37613;51.788;21.582;2023-04-15T02:45:41;99262.44;;;8.27;99.99
51530;BME280;37613;51.788;21.582;2023-04-15T02:50:07;99259.67;;;8.28;100.00
51530;BME280;37613;51.788;21.582;2023-04-15T02:54:45;99254.50;;;8.24;100.00
51530;BME280;37613;51.788;21.582;2023-04-15T02:59:06;99262.58;;;8.29;100.00
51530;BME280;37613;51.788;21.582;2023-04-15T03:08:28;99259.35;;;8.29;100.00
51530;BME280;37613;51.788;21.582;2023-04-15T03:12:56;99249.70;;;8.24;100.00
51530;BME280;37613;51.788;21.582;2023-04-15T03:17:23;99264.45;;;8.31;100.00
51530;BME280;37613;51.788;21.582;2023-04-15T03:21:47;99267.20;;;8.33;100.00
51530;BME280;37613;51.788;21.582;2023-04-15T03:25:52;99262.40;;;8.33;100.00
51530;BME280;37613;51.788;21.582;2023-04-15T03:40:00;99262.80;;;8.35;100.00
51530;BME280;37613;51.788;21.582;2023-04-15T03:44:41;99263.67;;;8.36;100.00
51530;BME280;37613;51.788;21.582;2023-04-15T03:49:08;99262.65;;;8.36;100.00
51530;BME280;37613;51.788;21.582;2023-04-15T03:53:39;99271.45;;;8.37;100.00
51530;BME280;37613;51.788;21.582;2023-04-15T03:57:57;99271.20;;;8.39;100.00
51530;BME280;37613;51.788;21.582;2023-04-15T04:23:36;99266.44;;;8.45;100.00
51530;BME280;37613;51.788;21.582;2023-04-15T04:27:52;99268.23;;;8.48;100.00
51530;BME280;37613;51.788;21.582;2023-04-15T04:32:22;99267.14;;;8.50;100.00
51530;BME280;37613;51.788;21.582;2023-04-15T04:36:46;99266.10;;;8.51;100.00
51530;BME280;37613;51.788;21.582;2023-04-15T04:41:34;99272.08;;;8.52;100.00
51530;BME280;37613;51.788;21.582;2023-04-15T04:46:02;99267.58;;;8.52;100.00
51530;BME280;37613;51.788;21.582;2023-04-15T04:55:10;99269.77;;;8.54;100.00
51530;BME280;37613;51.788;21.582;2023-04-15T04:59:43;99270.71;;;8.54;100.00
51530;BME280;37613;51.788;21.582;2023-04-15T05:04:07;99277.02;;;8.54;100.00
51530;BME280;37613;51.788;21.582;2023-04-15T05:08:53;99281.98;;;8.53;100.00
51530;BME280;37613;51.788;21.582;2023-04-15T05:13:15;99280.50;;;8.52;100.00
51530;BME280;37613;51.788;21.582;2023-04-15T05:22:50;99279.32;;;8.52;100.00
51530;BME280;37613;51.788;21.582;2023-04-15T05:27:15;99276.25;;;8.52;100.00
51530;BME280;37613;51.788;21.582;2023-04-15T05:31:46;99278.44;;;8.53;100.00
51530;BME280;37613;51.788;21.582;2023-04-15T05:41:14;99281.10;;;8.54;100.00
51530;BME280;37613;51.788;21.582;2023-04-15T05:50:42;99291.02;;;8.56;100.00
51530;BME280;37613;51.788;21.582;2023-04-15T06:05:07;99295.77;;;8.57;100.00
51530;BME280;37613;51.788;21.582;2023-04-15T06:09:23;99294.73;;;8.56;100.00
51530;BME280;37613;51.788;21.582;2023-04-15T06:13:47;99298.75;;;8.56;100.00
51530;BME280;37613;51.788;21.582;2023-04-15T06:18:08;99294.88;;;8.57;100.00
51530;BME280;37613;51.788;21.582;2023-04-15T06:22:22;99297.23;;;8.59;100.00
51530;BME280;37613;51.788;21.582;2023-04-15T06:31:28;99302.49;;;8.61;100.00
51530;BME280;37613;51.788;21.582;2023-04-15T06:35:56;99304.46;;;8.60;100.00
51530;BME280;37613;51.788;21.582;2023-04-15T06:40:17;99303.75;;;8.60;100.00
51530;BME280;37613;51.788;21.582;2023-04-15T06:44:33;99306.96;;;8.62;100.00
51530;BME280;37613;51.788;21.582;2023-04-15T06:49:05;99310.02;;;8.63;100.00
51530;BME280;37613;51.788;21.582;2023-04-15T06:53:34;99311.85;;;8.63;100.00
51530;BME280;37613;51.788;21.582;2023-04-15T06:57:57;99312.01;;;8.63;100.00
51530;BME280;37613;51.788;21.582;2023-04-15T07:02:15;99316.98;;;8.63;100.00
51530;BME280;37613;51.788;21.582;2023-04-15T07:06:34;99320.91;;;8.64;100.00
51530;BME280;37613;51.788;21.582;2023-04-15T07:11:01;99321.77;;;8.67;100.00
51530;BME280;37613;51.788;21.582;2023-04-15T07:15:31;99323.94;;;8.71;100.00
51530;BME280;37613;51.788;21.582;2023-04-15T07:20:16;99325.04;;;8.73;100.00
51530;BME280;37613;51.788;21.582;2023-04-15T07:24:52;99324.06;;;8.76;100.00
51530;BME280;37613;51.788;21.582;2023-04-15T07:29:38;99318.70;;;8.80;100.00
51530;BME280;37613;51.788;21.582;2023-04-15T07:34:15;99320.39;;;8.83;100.00
51530;BME280;37613;51.788;21.582;2023-04-15T07:38:31;99322.73;;;8.85;100.00
51530;BME280;37613;51.788;21.582;2023-04-15T07:42:52;99320.52;;;8.88;100.00
51530;BME280;37613;51.788;21.582;2023-04-15T07:47:19;99318.94;;;8.90;100.00
51530;BME280;37613;51.788;21.582;2023-04-15T07:51:55;99317.23;;;8.93;100.00
51530;BME280;37613;51.788;21.582;2023-04-15T07:56:36;99320.83;;;8.97;100.00
51530;BME280;37613;51.788;21.582;2023-04-15T08:01:05;99321.60;;;9.00;100.00
